Auburn, Mississippi
Current Conditions -  °F | °C
As of 4:00 PM on Monday 22 Dec 2014 (Local Time) from KMCB Reporting Station
Scattered Clouds Scattered Clouds  
Wind Chill: 22°   Ceiling: Unl
Heat Index: 22°   Visibility: 10mi
Dew Point: 17°   Wind: 6mph
Humidity: 75%   Direction: 180°S
Pressure: 29.67"   Gusts: NA
Location:  31.3682°N, 90.6714°W
Report Text: KMCB 222200Z AUTO 18005KT 10SM SCT027 SCT040 22/17 A2967 RMK AO2 T02170172
Loading
Personal Weather Stations






























Interactive Weather Map New forecast layout! Learn more

10-Day Weather Forecast

Advertisements
Track Severe Weather on mobile